createdAt,value
2022-08-17T00:02:16.366Z,20.4
2022-08-17T00:12:42.419Z,20.1
2022-08-17T00:22:33.485Z,20.1
2022-08-17T00:33:10.533Z,19.9
2022-08-17T00:42:17.295Z,19.7
2022-08-17T00:52:17.361Z,19.6
2022-08-17T01:02:18.340Z,19.6
2022-08-17T01:12:19.316Z,19.5
2022-08-17T01:22:19.419Z,19.4
2022-08-17T01:32:20.393Z,19.3
2022-08-17T01:42:21.276Z,19.1
2022-08-17T01:52:22.154Z,18.9
2022-08-17T02:02:30.213Z,18.8
2022-08-17T02:12:38.639Z,18.7
2022-08-17T02:22:23.909Z,18.6
2022-08-17T02:32:27.801Z,18.5
2022-08-17T02:42:25.151Z,18.5
2022-08-17T02:52:42.620Z,18.5
2022-08-17T03:02:25.935Z,18.4
2022-08-17T03:12:26.942Z,18.3
2022-08-17T03:22:36.370Z,18.2
2022-08-17T03:32:28.036Z,18.3
2022-08-17T03:42:31.702Z,18.3
2022-08-17T03:52:28.232Z,18.1
2022-08-17T04:02:28.752Z,18.2
2022-08-17T04:12:29.461Z,18.1
2022-08-17T04:22:33.493Z,18.1
2022-08-17T04:32:59.525Z,18.2
2022-08-17T04:42:30.869Z,18.3
2022-08-17T04:52:43.089Z,18.5
2022-08-17T05:02:31.877Z,18.6
2022-08-17T05:12:32.350Z,18.8
2022-08-17T05:23:16.439Z,19
2022-08-17T05:32:40.269Z,19.2
2022-08-17T05:42:39.549Z,19.5
2022-08-17T05:52:40.328Z,19.9
2022-08-17T06:02:43.055Z,20.3
2022-08-17T06:12:40.609Z,20.7
2022-08-17T06:32:41.774Z,21.6
2022-08-17T06:42:54.391Z,22
2022-08-17T06:52:46.230Z,22.1
2022-08-17T07:02:51.442Z,22.2
2022-08-17T07:12:43.837Z,22.3
2022-08-17T07:22:50.469Z,22.4
2022-08-17T07:32:44.399Z,22.6
2022-08-17T07:42:46.624Z,22.9
2022-08-17T07:52:48.641Z,23.1
2022-08-17T08:02:45.178Z,23.7
2022-08-17T08:12:45.695Z,24.1
2022-08-17T08:22:45.952Z,24.4
2022-08-17T08:32:46.536Z,24.7
2022-08-17T08:42:47.469Z,25.1
2022-08-17T08:52:48.345Z,25.5
2022-08-17T09:02:48.503Z,26
2022-08-17T09:22:50.196Z,25.9
2022-08-17T09:32:51.148Z,25.7
2022-08-17T09:42:51.041Z,25.9
2022-08-17T09:52:51.704Z,25.7
2022-08-17T10:02:52.586Z,25.4
2022-08-17T10:12:53.278Z,25.5
2022-08-17T10:13:14.615Z,25.5
2022-08-17T10:32:58.940Z,25.6
2022-08-17T10:42:59.325Z,25.2
2022-08-17T10:52:59.758Z,25
2022-08-17T11:03:00.420Z,24.5
2022-08-17T11:13:00.501Z,24.5
2022-08-17T11:23:00.832Z,24.1
2022-08-17T11:53:01.981Z,23.6
2022-08-17T12:03:02.092Z,23.5
2022-08-17T12:23:03.648Z,23.4
2022-08-17T12:43:04.804Z,24
2022-08-17T12:53:05.853Z,24.1
2022-08-17T13:03:06.259Z,24.3
2022-08-17T13:33:07.378Z,25.5
2022-08-17T13:43:07.566Z,26
2022-08-17T14:03:08.672Z,26.5
2022-08-17T14:13:09.127Z,26.3
2022-08-17T14:23:09.672Z,26.1
2022-08-17T14:33:10.332Z,26
2022-08-17T14:43:11.213Z,26.5
2022-08-17T14:53:11.699Z,25.9
2022-08-17T15:03:12.231Z,25.4
2022-08-17T15:13:12.855Z,25.4
2022-08-17T15:23:13.898Z,25.3
2022-08-17T15:33:14.481Z,25.7
2022-08-17T15:43:15.069Z,25.6
2022-08-17T15:53:16.058Z,25.8
2022-08-17T16:03:46.508Z,25.7
2022-08-17T16:13:18.160Z,25.6
2022-08-17T16:23:20.148Z,25.3
2022-08-17T16:33:18.882Z,25.3
2022-08-17T16:43:19.602Z,24.7
2022-08-17T16:53:19.715Z,24.9
2022-08-17T17:03:20.761Z,24.8
2022-08-17T17:13:21.215Z,24.6
2022-08-17T17:23:21.271Z,24.5
2022-08-17T17:33:21.409Z,24.3
2022-08-17T17:43:38.074Z,24.1
2022-08-17T17:53:22.500Z,24.1
2022-08-17T18:03:22.351Z,23.7
2022-08-17T18:13:26.045Z,23.6
2022-08-17T18:23:27.840Z,23.5
2022-08-17T18:33:24.641Z,23.1
2022-08-17T18:43:24.807Z,23
2022-08-17T19:03:25.059Z,22.6
2022-08-17T19:13:26.008Z,22.3
2022-08-17T19:23:26.491Z,22.1
2022-08-17T19:33:26.585Z,22
2022-08-17T19:43:26.855Z,21.9
2022-08-17T19:53:36.827Z,21.8
2022-08-17T20:03:27.737Z,21.7
2022-08-17T20:13:33.096Z,21.5
2022-08-17T20:23:29.823Z,21.4
2022-08-17T20:33:29.998Z,21.1
2022-08-17T20:43:30.112Z,20.8
2022-08-17T20:53:31.089Z,20.8
2022-08-17T21:03:39.966Z,20.8
2022-08-17T21:13:32.497Z,20.9
2022-08-17T21:23:32.769Z,20.8
2022-08-17T21:33:33.446Z,20.7
2022-08-17T21:43:34.384Z,20.5
2022-08-17T21:53:34.438Z,20.4
2022-08-17T22:03:34.605Z,20.1
2022-08-17T22:13:34.626Z,20
2022-08-17T22:23:35.675Z,19.9
2022-08-17T22:33:36.641Z,19.7
2022-08-17T22:43:37.114Z,19.6
2022-08-17T22:53:37.312Z,19.3
2022-08-17T23:03:37.565Z,19.3
2022-08-17T23:13:38.321Z,19.2
2022-08-17T23:23:38.677Z,19
2022-08-17T23:33:38.790Z,18.8
2022-08-17T23:43:39.070Z,18.7
2022-08-17T23:53:39.309Z,18.7
